METAR Data
IDs: Format: Raw Decoded Include TAF

Data at: 0629 UTC 23 Feb 2019

KLXY 230615Z AUTO 17006KT 4SM BR BKN004 OVC008 11/10 A2985 RMK AO2 LTG DSNT NW T01050101
KLXY 230555Z AUTO 16005KT 5SM BR SCT004 OVC008 10/10 A2985 RMK AO2 T01030100 10103 20098 401030076
KLXY 230535Z AUTO 16006KT 3SM BR BKN005 OVC010 10/10 A2986 RMK AO2 T01020100
KLXY 230515Z AUTO 00000KT 1 3/4SM BR OVC003 10/10 A2988 RMK AO2 T01020100
KLXY 230455Z AUTO 00000KT 3/4SM BR OVC005 10/10 A2989 RMK AO2 T01010098
KLXY 230435Z AUTO 21004KT 3/4SM BR OVC003 10/10 A2989 RMK AO2 T01010098
KLXY 230415Z AUTO 00000KT 3/4SM BR OVC003 10/10 A2990 RMK AO2 T01010098
KLXY 230355Z AUTO 31003KT 1/2SM FG OVC003 10/10 A2991 RMK AO2 T01010098
KLXY 230335Z AUTO 32003KT 1/2SM FG OVC003 10/10 A2991 RMK AO2 T01000097
KLXY 230315Z AUTO 29006KT 1/2SM FG OVC003 10/10 A2991 RMK AO2 T01010098
KLXY 230255Z AUTO 29005KT 1 1/4SM BR OVC003 10/10 A2991 RMK AO2 T01010098
KLXY 230235Z AUTO 32003KT 1SM BR OVC003 10/10 A2990 RMK AO2 T01010098
KLXY 230215Z AUTO 32003KT 3/4SM BR OVC003 10/10 A2990 RMK AO2 T01010098
KLXY 230155Z AUTO 08003KT 1/2SM FG OVC003 10/10 A2989 RMK AO2 T01000097
KLXY 230135Z AUTO 14004KT 1/2SM FG OVC003 10/10 A2989 RMK AO2 T01000096
KLXY 230115Z AUTO 26004KT 1/2SM FG OVC003 10/10 A2989 RMK AO2 T01000096
KLXY 230055Z AUTO 28005KT 1SM BR OVC003 10/10 A2990 RMK AO2 T00980096
KLXY 230035Z AUTO 00000KT 1 1/2SM BR OVC003 10/10 A2991 RMK AO2 T01000096
KLXY 230015Z AUTO 05003KT 1SM BR OVC003 10/10 A2990 RMK AO2 T00980095
KLXY 222355Z AUTO 10005KT 1 1/2SM BR OVC003 10/10 A2991 RMK AO2 60001 T00980095 10098 20085
KLXY 222335Z AUTO 29004KT 1 3/4SM BR OVC003 10/10 A2991 RMK AO2 T00970095
KLXY 222315Z AUTO 34004KT 2SM BR OVC003 10/10 A2991 RMK AO2 T00970095
KLXY 222255Z AUTO 27003KT 2 1/2SM BR OVC003 10/10 A2992 RMK AO2 T00980095
KLXY 222235Z AUTO 02004KT 5SM BR OVC003 10/10 A2991 RMK AO2 T00980095
KLXY 222215Z AUTO 08004KT 10SM OVC003 10/10 A2991 RMK AO2 T00970095
KLXY 222155Z AUTO 07005KT 10SM OVC003 10/10 A2991 RMK AO2 LTG DSNT N T00980095
KLXY 222135Z AUTO 35005KT 10SM OVC003 10/09 A2991 RMK AO2 T00950092
KLXY 222115Z AUTO 07005KT 10SM OVC003 10/09 A2992 RMK AO2 T00950092
KLXY 222055Z AUTO 06004KT 7SM OVC003 10/09 A2992 RMK AO2 P0001 60001 T00950091
KLXY 222035Z AUTO 04005KT 4SM BR OVC003 09/09 A2992 RMK AO2 P0001 T00910089
KLXY 222015Z AUTO 36004KT 5SM BR OVC003 09/09 A2992 RMK AO2 P0001 T00910089
KLXY 221955Z AUTO 02005KT 5SM BR OVC003 09/09 A2994 RMK AO2 T00900087
KLXY 221935Z AUTO 34004KT 2 1/2SM BR OVC003 09/09 A2995 RMK AO2 T00910088
KLXY 221915Z AUTO 34006KT 2SM BR OVC003 09/09 A2997 RMK AO2 T00890086
KLXY 221855Z AUTO 31005KT 2 1/2SM BR OVC003 09/09 A2998 RMK AO2 T00880085
KLXY 221835Z AUTO 35005KT 1 1/2SM BR OVC003 09/08 A2999 RMK AO2 LTG DSNT NE AND E T00860083
KLXY 221815Z AUTO 02006KT 1/2SM FG OVC003 09/08 A2998 RMK AO2 T00850083
KLXY 221755Z AUTO 31006KT 1/2SM FG OVC003 09/08 A3000 RMK AO2 T00850082 10086 20076
KLXY 221735Z AUTO 36006KT 1/2SM FG OVC003 09/08 A3000 RMK AO2 T00850082
KLXY 221715Z AUTO 33007KT 300V020 1/2SM FG OVC003 09/08 A2999 RMK AO2 T00860083
KLXY 221655Z AUTO 30006KT 1/2SM FG OVC003 09/08 A3000 RMK AO2 T00850081
KLXY 221635Z AUTO 30005KT 1/2SM FG OVC003 08/08 A3001 RMK AO2 T00830081
KLXY 221615Z AUTO 31006KT 1/2SM FG OVC003 08/08 A3001 RMK AO2 LTG DSNT NE T00830080
KLXY 221555Z AUTO 32005KT 3/4SM BR OVC003 08/08 A3002 RMK AO2 LTG DSNT E T00830080
KLXY 221535Z AUTO 30006KT 270V330 3/4SM BR OVC003 08/08 A3002 RMK AO2 T00820080
KLXY 221515Z AUTO 00000KT 1SM BR OVC003 08/08 A3001 RMK AO2 T00810078
KLXY 221455Z AUTO 00000KT 3/4SM -RA OVC003 08/08 A2999 RMK AO2 T00800077
KLXY 221435Z AUTO 11007KT 3/4SM BR OVC003 08/08 A2998 RMK AO2 T00800076
KLXY 221415Z AUTO 12004KT 1/2SM FG OVC003 08/08 A2995 RMK AO2 T00780075
KLXY 221355Z AUTO 08005KT 1/2SM FG OVC003 08/08 A2995 RMK AO2 T00770075
KLXY 221335Z AUTO 10008KT 1/2SM FG OVC003 08/07 A2994 RMK AO2 T00760074
KLXY 221315Z AUTO 09006KT 1/2SM FG OVC003 08/07 A2995 RMK AO2 T00760074
KLXY 221255Z AUTO 07005KT 1/2SM FG OVC003 08/07 A2994 RMK AO2 T00760074
KLXY 221235Z AUTO 09008KT 1SM BR OVC003 08/08 A2996 RMK AO2 T00770075
KLXY 221215Z AUTO 08006KT 2SM BR OVC003 08/07 A2996 RMK AO2 T00760074
KLXY 221155Z AUTO 08006KT 5SM BR OVC003 08/07 A2996 RMK AO2 70001 T00760074 10085 20076
KLXY 221135Z AUTO 08004KT 7SM OVC003 08/08 A2996 RMK AO2 T00760075
KLXY 221115Z AUTO 00000KT 7SM OVC003 08/08 A2996 RMK AO2 T00770075
KLXY 221055Z AUTO 08006KT 4SM BR OVC003 08/08 A2997 RMK AO2 T00770075
KLXY 221035Z AUTO 08006KT 4SM BR OVC003 08/08 A2997 RMK AO2 T00780075
KLXY 221015Z AUTO 08005KT 10SM OVC003 08/08 A2997 RMK AO2 T00790075
KLXY 220955Z AUTO 08005KT 10SM OVC003 08/08 A2997 RMK AO2 T00790076
KLXY 220935Z AUTO 07006KT 10SM OVC003 08/08 A2997 RMK AO2 T00800076
KLXY 220915Z AUTO 08005KT 10SM OVC003 08/08 A2996 RMK AO2 T00800076
KLXY 220855Z AUTO 08003KT 5SM BR OVC003 08/08 A2997 RMK AO2 T00800076
KLXY 220835Z AUTO 08006KT 10SM OVC003 08/08 A2997 RMK AO2 LTG DSNT N T00800077
KLXY 220815Z AUTO 09003KT 10SM OVC003 08/08 A2997 RMK AO2 T00810077
KLXY 220755Z AUTO 09005KT 10SM OVC005 08/08 A2999 RMK AO2 T00820076
KLXY 220735Z AUTO 10007KT 10SM OVC005 08/08 A2999 RMK AO2 T00830075
KLXY 220715Z AUTO 00000KT 10SM OVC007 08/07 A3002 RMK AO2 T00840072
KLXY 220655Z AUTO 06004KT 10SM OVC007 08/07 A3000 RMK AO2 T00840071
KLXY 220635Z AUTO 09007KT 10SM OVC007 09/07 A3000 RMK AO2 T00850070
KLXY 220615Z AUTO 00000KT 10SM OVC007 09/07 A3002 RMK AO2 T00850068
KLXY 220555Z AUTO 00000KT 10SM OVC007 09/07 A3002 RMK AO2 T00850067 10100 20083 401050059
KLXY 220535Z AUTO 00000KT 10SM OVC009 09/07 A3001 RMK AO2 T00850066
KLXY 220515Z AUTO 10006KT 10SM OVC009 09/07 A2999 RMK AO2 T00850066
KLXY 220455Z AUTO 09006KT 10SM OVC009 09/07 A2998 RMK AO2 T00850065
KLXY 220435Z AUTO 08006KT 10SM OVC009 09/07 A2999 RMK AO2 T00850065
KLXY 220415Z AUTO 09003KT 10SM OVC009 09/07 A2999 RMK AO2 T00850065
KLXY 220355Z AUTO 07007KT 030V090 10SM OVC009 09/07 A2997 RMK AO2 T00850065
KLXY 220335Z AUTO 07008KT 10SM OVC009 09/07 A2996 RMK AO2 T00850065
KLXY 220315Z AUTO 04005KT 10SM OVC011 09/07 A2997 RMK AO2 T00860065
KLXY 220255Z AUTO 06007KT 10SM OVC011 09/07 A2996 RMK AO2 T00870065
KLXY 220235Z AUTO 07005KT 10SM OVC011 09/07 A2996 RMK AO2 T00870065
KLXY 220215Z AUTO 08007KT 050V110 10SM OVC011 09/07 A2996 RMK AO2 T00880065
KLXY 220155Z AUTO 07007KT 10SM OVC013 09/07 A2994 RMK AO2 T00900065
KLXY 220135Z AUTO 08006KT 10SM OVC013 09/07 A2995 RMK AO2 T00900065
KLXY 220115Z AUTO 09007KT 060V170 10SM OVC013 09/07 A2994 RMK AO2 T00920065
KLXY 220055Z AUTO 08010G14KT 060V140 10SM OVC013 09/07 A2994 RMK AO2 T00930065
KLXY 220035Z AUTO 12005KT 10SM OVC015 10/07 A2994 RMK AO2 T00950065
KLXY 220015Z AUTO 09011G15KT 080V150 10SM OVC015 10/06 A2994 RMK AO2 T00970064
KLXY 212355Z AUTO 09010G16KT 10SM BKN017 OVC030 10/06 A2993 RMK AO2 T01000063 10105 20093
KLXY 212335Z AUTO 09010G16KT 10SM SCT017 OVC032 10/06 A2993 RMK AO2 T01000061
KLXY 212315Z AUTO 09009G15KT 060V120 10SM BKN032 BKN038 OVC055 10/06 A2992 RMK AO2 T01000060
KLXY 212255Z AUTO 09011G15KT 060V130 10SM BKN032 BKN038 OVC055 10/06 A2992 RMK AO2 T01010058
KLXY 212235Z AUTO 09009G15KT 330V150 10SM OVC032 10/06 A2994 RMK AO2 T01010056
KLXY 212215Z AUTO 08010G16KT 060V190 10SM OVC034 10/06 A2993 RMK AO2 T01030056
KLXY 212155Z AUTO 08008G15KT 020V150 10SM OVC034 10/05 A2994 RMK AO2 T01000054
KLXY 212135Z AUTO 09008G14KT 070V150 10SM OVC036 10/05 A2995 RMK AO2 T01010053
KLXY 212115Z AUTO 08006KT 10SM OVC036 10/05 A2996 RMK AO2 T01000050
KLXY 212055Z AUTO 06007KT 010V100 10SM OVC036 10/05 A2994 RMK AO2 T01000052
KLXY 212035Z AUTO 05007KT 020V100 10SM OVC038 10/05 A2995 RMK AO2 T01000051
KLXY 212015Z AUTO 11004KT 10SM OVC038 10/05 A2996 RMK AO2 T01000049
KLXY 211955Z AUTO 07008G14KT 050V110 10SM OVC040 10/05 A2995 RMK AO2 LTG DSNT N T00980046
KLXY 211935Z AUTO 08010G15KT 10SM OVC042 10/04 A2997 RMK AO2 T01010043
KLXY 211915Z AUTO 06011G16KT 10SM OVC044 11/05 A2995 RMK AO2 T01050051
KLXY 211855Z AUTO 09009KT 10SM OVC044 10/05 A2997 RMK AO2 T00990051
KLXY 211835Z AUTO 07008KT 040V110 10SM OVC048 10/05 A2999 RMK AO2 T00980047